sensor_id;sensor_type;location;lat;lon;timestamp;pressure;altitude;pressure_sealevel;temperature;humidity
34925;BME280;21130;51.728;8.748;2023-12-20T00:00:20;100181.06;;;5.93;100.00
34925;BME280;21130;51.728;8.748;2023-12-20T00:02:49;100172.19;;;5.91;100.00
34925;BME280;21130;51.728;8.748;2023-12-20T00:05:16;100184.91;;;5.92;100.00
34925;BME280;21130;51.728;8.748;2023-12-20T00:07:44;100167.97;;;5.95;100.00
34925;BME280;21130;51.728;8.748;2023-12-20T00:10:10;100171.78;;;5.88;100.00
34925;BME280;21130;51.728;8.748;2023-12-20T00:12:38;100163.34;;;5.82;100.00
34925;BME280;21130;51.728;8.748;2023-12-20T00:15:05;100168.50;;;5.72;100.00
34925;BME280;21130;51.728;8.748;2023-12-20T00:17:32;100168.94;;;5.69;100.00
34925;BME280;21130;51.728;8.748;2023-12-20T00:19:58;100161.13;;;5.66;100.00
34925;BME280;21130;51.728;8.748;2023-12-20T00:22:25;100164.13;;;5.65;100.00
34925;BME280;21130;51.728;8.748;2023-12-20T00:24:52;100161.94;;;5.67;100.00
34925;BME280;21130;51.728;8.748;2023-12-20T00:27:20;100165.56;;;5.67;100.00
34925;BME280;21130;51.728;8.748;2023-12-20T00:29:46;100154.13;;;5.70;100.00
34925;BME280;21130;51.728;8.748;2023-12-20T00:32:14;100162.38;;;5.70;100.00
34925;BME280;21130;51.728;8.748;2023-12-20T00:34:41;100176.13;;;5.70;100.00
34925;BME280;21130;51.728;8.748;2023-12-20T00:37:07;100178.25;;;5.68;100.00
34925;BME280;21130;51.728;8.748;2023-12-20T00:39:34;100181.03;;;5.68;100.00
34925;BME280;21130;51.728;8.748;2023-12-20T00:42:01;100165.97;;;5.71;100.00
34925;BME280;21130;51.728;8.748;2023-12-20T00:44:28;100170.91;;;5.62;100.00
34925;BME280;21130;51.728;8.748;2023-12-20T00:46:54;100170.72;;;5.57;100.00
34925;BME280;21130;51.728;8.748;2023-12-20T00:49:21;100175.81;;;5.53;100.00
34925;BME280;21130;51.728;8.748;2023-12-20T00:51:47;100168.84;;;5.51;100.00
34925;BME280;21130;51.728;8.748;2023-12-20T00:54:15;100171.84;;;5.43;100.00
34925;BME280;21130;51.728;8.748;2023-12-20T00:56:42;100172.09;;;5.34;100.00
34925;BME280;21130;51.728;8.748;2023-12-20T00:59:09;100169.34;;;5.34;100.00
34925;BME280;21130;51.728;8.748;2023-12-20T01:01:36;100179.31;;;5.29;100.00
34925;BME280;21130;51.728;8.748;2023-12-20T01:04:02;100181.03;;;5.23;100.00
34925;BME280;21130;51.728;8.748;2023-12-20T01:06:29;100179.34;;;5.22;100.00
34925;BME280;21130;51.728;8.748;2023-12-20T01:08:55;100176.19;;;5.18;100.00
34925;BME280;21130;51.728;8.748;2023-12-20T01:11:22;100170.47;;;5.20;100.00
34925;BME280;21130;51.728;8.748;2023-12-20T01:13:48;100176.19;;;5.18;100.00
34925;BME280;21130;51.728;8.748;2023-12-20T01:16:16;100173.03;;;5.15;100.00
34925;BME280;21130;51.728;8.748;2023-12-20T01:18:42;100174.94;;;5.14;100.00
34925;BME280;21130;51.728;8.748;2023-12-20T01:21:09;100193.78;;;5.11;100.00
34925;BME280;21130;51.728;8.748;2023-12-20T01:23:35;100193.38;;;5.07;100.00
34925;BME280;21130;51.728;8.748;2023-12-20T01:26:02;100191.47;;;5.08;100.00
34925;BME280;21130;51.728;8.748;2023-12-20T01:28:29;100191.25;;;5.03;100.00
34925;BME280;21130;51.728;8.748;2023-12-20T01:30:57;100184.50;;;4.98;100.00
34925;BME280;21130;51.728;8.748;2023-12-20T01:33:24;100181.56;;;4.93;100.00
34925;BME280;21130;51.728;8.748;2023-12-20T01:35:51;100189.59;;;4.95;100.00
34925;BME280;21130;51.728;8.748;2023-12-20T01:38:17;100191.06;;;4.91;100.00
34925;BME280;21130;51.728;8.748;2023-12-20T01:40:44;100188.97;;;4.86;100.00
34925;BME280;21130;51.728;8.748;2023-12-20T01:43:10;100190.25;;;4.90;100.00
34925;BME280;21130;51.728;8.748;2023-12-20T01:45:37;100197.41;;;4.91;100.00
34925;BME280;21130;51.728;8.748;2023-12-20T01:48:05;100190.25;;;4.90;100.00
34925;BME280;21130;51.728;8.748;2023-12-20T01:50:36;100198.06;;;4.93;100.00
34925;BME280;21130;51.728;8.748;2023-12-20T01:53:04;100209.88;;;4.94;100.00
34925;BME280;21130;51.728;8.748;2023-12-20T01:55:34;100208.63;;;4.96;100.00
34925;BME280;21130;51.728;8.748;2023-12-20T01:58:01;100225.53;;;5.00;100.00
34925;BME280;21130;51.728;8.748;2023-12-20T02:00:28;100218.78;;;5.03;100.00
34925;BME280;21130;51.728;8.748;2023-12-20T02:02:55;100213.28;;;5.03;100.00
34925;BME280;21130;51.728;8.748;2023-12-20T02:05:23;100216.03;;;5.03;100.00
34925;BME280;21130;51.728;8.748;2023-12-20T02:07:52;100215.19;;;5.02;100.00
34925;BME280;21130;51.728;8.748;2023-12-20T02:10:17;100220.88;;;5.07;100.00
34925;BME280;21130;51.728;8.748;2023-12-20T02:12:44;100217.91;;;5.09;100.00
34925;BME280;21130;51.728;8.748;2023-12-20T02:15:10;100216.22;;;5.08;100.00
34925;BME280;21130;51.728;8.748;2023-12-20T02:17:38;100215.81;;;5.04;100.00
34925;BME280;21130;51.728;8.748;2023-12-20T02:20:06;100212.81;;;5.06;100.00
34925;BME280;21130;51.728;8.748;2023-12-20T02:22:34;100211.78;;;5.07;100.00
34925;BME280;21130;51.728;8.748;2023-12-20T02:25:01;100204.81;;;5.04;100.00
34925;BME280;21130;51.728;8.748;2023-12-20T02:27:27;100201.38;;;5.09;100.00
34925;BME280;21130;51.728;8.748;2023-12-20T02:29:55;100195.03;;;5.08;100.00
34925;BME280;21130;51.728;8.748;2023-12-20T02:32:24;100187.81;;;5.14;100.00
34925;BME280;21130;51.728;8.748;2023-12-20T02:34:51;100200.97;;;5.12;100.00
34925;BME280;21130;51.728;8.748;2023-12-20T02:37:18;100198.03;;;5.07;100.00
34925;BME280;21130;51.728;8.748;2023-12-20T02:39:46;100194.41;;;5.06;100.00
34925;BME280;21130;51.728;8.748;2023-12-20T02:42:12;100190.38;;;5.09;100.00
34925;BME280;21130;51.728;8.748;2023-12-20T02:44:38;100188.50;;;5.03;100.00
34925;BME280;21130;51.728;8.748;2023-12-20T02:47:05;100192.56;;;4.93;100.00
34925;BME280;21130;51.728;8.748;2023-12-20T02:49:31;100201.44;;;4.89;100.00
34925;BME280;21130;51.728;8.748;2023-12-20T02:51:58;100196.38;;;4.86;100.00
34925;BME280;21130;51.728;8.748;2023-12-20T02:54:24;100183.06;;;4.83;100.00
34925;BME280;21130;51.728;8.748;2023-12-20T02:56:52;100192.19;;;4.76;100.00
34925;BME280;21130;51.728;8.748;2023-12-20T02:59:18;100201.91;;;4.72;100.00
34925;BME280;21130;51.728;8.748;2023-12-20T03:01:45;100201.28;;;4.70;100.00
34925;BME280;21130;51.728;8.748;2023-12-20T03:04:12;100192.19;;;4.70;100.00
34925;BME280;21130;51.728;8.748;2023-12-20T03:06:38;100198.31;;;4.72;100.00
34925;BME280;21130;51.728;8.748;2023-12-20T03:09:05;100184.16;;;4.75;100.00
34925;BME280;21130;51.728;8.748;2023-12-20T03:11:31;100187.94;;;4.74;100.00
34925;BME280;21130;51.728;8.748;2023-12-20T03:13:59;100188.56;;;4.76;100.00
34925;BME280;21130;51.728;8.748;2023-12-20T03:16:25;100192.59;;;4.73;100.00
34925;BME280;21130;51.728;8.748;2023-12-20T03:18:52;100183.50;;;4.73;100.00
34925;BME280;21130;51.728;8.748;2023-12-20T03:21:18;100188.81;;;4.74;100.00
34925;BME280;21130;51.728;8.748;2023-12-20T03:23:45;100193.03;;;4.77;100.00
34925;BME280;21130;51.728;8.748;2023-12-20T03:26:11;100180.97;;;4.78;100.00
34925;BME280;21130;51.728;8.748;2023-12-20T03:28:37;100183.72;;;4.78;100.00
34925;BME280;21130;51.728;8.748;2023-12-20T03:31:05;100192.59;;;4.80;100.00
34925;BME280;21130;51.728;8.748;2023-12-20T03:33:31;100176.09;;;4.80;100.00
34925;BME280;21130;51.728;8.748;2023-12-20T03:35:58;100176.94;;;4.81;100.00
34925;BME280;21130;51.728;8.748;2023-12-20T03:38:44;100170.16;;;4.83;100.00
34925;BME280;21130;51.728;8.748;2023-12-20T03:41:31;100171.44;;;4.81;100.00
34925;BME280;21130;51.728;8.748;2023-12-20T03:44:15;100175.25;;;4.80;100.00
34925;BME280;21130;51.728;8.748;2023-12-20T03:46:43;100176.09;;;4.80;100.00
34925;BME280;21130;51.728;8.748;2023-12-20T03:49:10;100178.44;;;4.76;100.00
34925;BME280;21130;51.728;8.748;2023-12-20T03:51:37;100187.09;;;4.80;100.00
34925;BME280;21130;51.728;8.748;2023-12-20T03:54:03;100179.91;;;4.79;100.00
34925;BME280;21130;51.728;8.748;2023-12-20T03:56:30;100171.25;;;4.75;100.00
34925;BME280;21130;51.728;8.748;2023-12-20T03:58:56;100172.94;;;4.76;100.00
34925;BME280;21130;51.728;8.748;2023-12-20T04:01:23;100169.31;;;4.76;100.00
34925;BME280;21130;51.728;8.748;2023-12-20T04:03:50;100163.63;;;4.78;100.00
34925;BME280;21130;51.728;8.748;2023-12-20T04:06:17;100163.00;;;4.75;100.00
34925;BME280;21130;51.728;8.748;2023-12-20T04:08:43;100177.38;;;4.78;100.00
34925;BME280;21130;51.728;8.748;2023-12-20T04:11:10;100175.25;;;4.80;100.00
34925;BME280;21130;51.728;8.748;2023-12-20T04:13:36;100180.13;;;4.78;100.00
34925;BME280;21130;51.728;8.748;2023-12-20T04:16:03;100170.19;;;4.76;100.00
34925;BME280;21130;51.728;8.748;2023-12-20T04:18:30;100178.66;;;4.75;100.00
34925;BME280;21130;51.728;8.748;2023-12-20T04:20:58;100175.25;;;4.73;100.00
34925;BME280;21130;51.728;8.748;2023-12-20T04:23:24;100163.19;;;4.74;100.00
34925;BME280;21130;51.728;8.748;2023-12-20T04:25:51;100170.41;;;4.75;100.00
34925;BME280;21130;51.728;8.748;2023-12-20T04:28:17;100164.69;;;4.70;100.00
34925;BME280;21130;51.728;8.748;2023-12-20T04:30:44;100159.66;;;4.67;100.00
34925;BME280;21130;51.728;8.748;2023-12-20T04:33:10;100166.63;;;4.63;100.00
34925;BME280;21130;51.728;8.748;2023-12-20T04:35:36;100171.47;;;4.61;100.00
34925;BME280;21130;51.728;8.748;2023-12-20T04:38:04;100165.78;;;4.62;100.00
34925;BME280;21130;51.728;8.748;2023-12-20T04:40:31;100172.31;;;4.61;100.00
34925;BME280;21130;51.728;8.748;2023-12-20T04:42:57;100161.75;;;4.65;100.00
34925;BME280;21130;51.728;8.748;2023-12-20T04:45:23;100162.16;;;4.68;100.00
34925;BME280;21130;51.728;8.748;2023-12-20T04:47:50;100167.25;;;4.65;100.00
34925;BME280;21130;51.728;8.748;2023-12-20T04:50:18;100165.13;;;4.67;100.00
34925;BME280;21130;51.728;8.748;2023-12-20T04:52:45;100159.00;;;4.65;100.00
34925;BME280;21130;51.728;8.748;2023-12-20T04:55:14;100150.31;;;4.68;100.00
34925;BME280;21130;51.728;8.748;2023-12-20T04:57:40;100153.06;;;4.68;100.00
34925;BME280;21130;51.728;8.748;2023-12-20T05:00:08;100153.91;;;4.68;100.00
34925;BME280;21130;51.728;8.748;2023-12-20T05:02:35;100151.59;;;4.65;100.00
34925;BME280;21130;51.728;8.748;2023-12-20T05:05:01;100157.94;;;4.66;100.00
34925;BME280;21130;51.728;8.748;2023-12-20T05:07:28;100147.78;;;4.66;100.00
34925;BME280;21130;51.728;8.748;2023-12-20T05:09:54;100149.47;;;4.67;100.00
34925;BME280;21130;51.728;8.748;2023-12-20T05:12:22;100155.81;;;4.68;100.00
34925;BME280;21130;51.728;8.748;2023-12-20T05:14:48;100159.84;;;4.65;100.00
34925;BME280;21130;51.728;8.748;2023-12-20T05:17:14;100154.16;;;4.67;100.00
34925;BME280;21130;51.728;8.748;2023-12-20T05:19:41;100163.44;;;4.66;100.00
34925;BME280;21130;51.728;8.748;2023-12-20T05:22:07;100157.94;;;4.66;100.00
34925;BME280;21130;51.728;8.748;2023-12-20T05:24:34;100159.41;;;4.68;100.00
34925;BME280;21130;51.728;8.748;2023-12-20T05:27:00;100164.69;;;4.70;100.00
34925;BME280;21130;51.728;8.748;2023-12-20T05:29:28;100164.06;;;4.68;100.00
34925;BME280;21130;51.728;8.748;2023-12-20T05:31:54;100170.41;;;4.68;100.00
34925;BME280;21130;51.728;8.748;2023-12-20T05:34:20;100174.22;;;4.67;100.00
34925;BME280;21130;51.728;8.748;2023-12-20T05:36:47;100168.94;;;4.66;100.00
34925;BME280;21130;51.728;8.748;2023-12-20T05:39:13;100163.44;;;4.66;100.00
34925;BME280;21130;51.728;8.748;2023-12-20T05:41:39;100157.72;;;4.67;100.00
34925;BME280;21130;51.728;8.748;2023-12-20T05:44:06;100158.56;;;4.68;100.00
34925;BME280;21130;51.728;8.748;2023-12-20T05:46:34;100156.91;;;4.67;100.00
34925;BME280;21130;51.728;8.748;2023-12-20T05:49:00;100162.59;;;4.65;100.00
34925;BME280;21130;51.728;8.748;2023-12-20T05:51:26;100150.31;;;4.68;100.00
34925;BME280;21130;51.728;8.748;2023-12-20T05:53:53;100156.91;;;4.67;100.00
34925;BME280;21130;51.728;8.748;2023-12-20T05:56:19;100157.50;;;4.69;100.00
34925;BME280;21130;51.728;8.748;2023-12-20T05:58:46;100160.03;;;4.70;100.00
34925;BME280;21130;51.728;8.748;2023-12-20T06:01:14;100175.47;;;4.71;100.00
34925;BME280;21130;51.728;8.748;2023-12-20T06:03:43;100169.38;;;4.69;100.00
34925;BME280;21130;51.728;8.748;2023-12-20T06:06:11;100159.44;;;4.62;100.00
34925;BME280;21130;51.728;8.748;2023-12-20T06:08:38;100165.16;;;4.60;100.00
34925;BME280;21130;51.728;8.748;2023-12-20T06:11:04;100168.09;;;4.59;100.00
34925;BME280;21130;51.728;8.748;2023-12-20T06:13:31;100165.34;;;4.59;100.00
34925;BME280;21130;51.728;8.748;2023-12-20T06:15:58;100159.84;;;4.59;100.00
34925;BME280;21130;51.728;8.748;2023-12-20T06:18:24;100171.47;;;4.61;100.00
34925;BME280;21130;51.728;8.748;2023-12-20T06:20:52;100160.91;;;4.64;100.00
34925;BME280;21130;51.728;8.748;2023-12-20T06:23:18;100165.97;;;4.67;100.00
34925;BME280;21130;51.728;8.748;2023-12-20T06:25:45;100161.97;;;4.63;100.00
34925;BME280;21130;51.728;8.748;2023-12-20T06:28:11;100165.34;;;4.65;100.00
34925;BME280;21130;51.728;8.748;2023-12-20T06:30:39;100160.69;;;4.66;100.00
34925;BME280;21130;51.728;8.748;2023-12-20T06:33:06;100160.47;;;4.67;100.00
34925;BME280;21130;51.728;8.748;2023-12-20T06:35:35;100154.56;;;4.64;100.00
34925;BME280;21130;51.728;8.748;2023-12-20T06:38:03;100163.88;;;4.63;100.00
34925;BME280;21130;51.728;8.748;2023-12-20T06:40:30;100162.19;;;4.62;100.00
34925;BME280;21130;51.728;8.748;2023-12-20T06:42:56;100158.38;;;4.63;100.00
34925;BME280;21130;51.728;8.748;2023-12-20T06:45:23;100164.06;;;4.61;100.00
34925;BME280;21130;51.728;8.748;2023-12-20T06:47:49;100176.53;;;4.64;100.00
34925;BME280;21130;51.728;8.748;2023-12-20T06:50:15;100169.16;;;4.64;100.00
34925;BME280;21130;51.728;8.748;2023-12-20T06:52:42;100172.94;;;4.63;100.00
34925;BME280;21130;51.728;8.748;2023-12-20T06:55:10;100164.06;;;4.61;100.00
34925;BME280;21130;51.728;8.748;2023-12-20T06:57:37;100165.53;;;4.64;100.00
34925;BME280;21130;51.728;8.748;2023-12-20T07:00:04;100160.91;;;4.64;100.00
34925;BME280;21130;51.728;8.748;2023-12-20T07:02:31;100166.19;;;4.66;100.00
34925;BME280;21130;51.728;8.748;2023-12-20T07:04:57;100175.06;;;4.68;100.00
34925;BME280;21130;51.728;8.748;2023-12-20T07:07:24;100168.94;;;4.66;100.00
34925;BME280;21130;51.728;8.748;2023-12-20T07:09:51;100170.19;;;4.70;100.00
34925;BME280;21130;51.728;8.748;2023-12-20T07:12:19;100174.22;;;4.67;100.00
34925;BME280;21130;51.728;8.748;2023-12-20T07:14:45;100177.81;;;4.68;100.00
34925;BME280;21130;51.728;8.748;2023-12-20T07:17:12;100175.50;;;4.65;100.00
34925;BME280;21130;51.728;8.748;2023-12-20T07:19:40;100171.69;;;4.66;100.00
34925;BME280;21130;51.728;8.748;2023-12-20T07:22:07;100174.44;;;4.66;100.00
34925;BME280;21130;51.728;8.748;2023-12-20T07:24:34;100175.25;;;4.66;100.00
34925;BME280;21130;51.728;8.748;2023-12-20T07:27:00;100176.13;;;4.67;100.00
34925;BME280;21130;51.728;8.748;2023-12-20T07:29:28;100176.13;;;4.67;100.00
34925;BME280;21130;51.728;8.748;2023-12-20T07:31:54;100170.84;;;4.65;100.00
34925;BME280;21130;51.728;8.748;2023-12-20T07:34:21;100170.63;;;4.67;100.00
34925;BME280;21130;51.728;8.748;2023-12-20T07:36:47;100168.50;;;4.69;100.00
34925;BME280;21130;51.728;8.748;2023-12-20T07:39:14;100178.25;;;4.65;100.00
34925;BME280;21130;51.728;8.748;2023-12-20T07:41:40;100178.44;;;4.70;100.00
34925;BME280;21130;51.728;8.748;2023-12-20T07:44:07;100173.16;;;4.68;100.00
34925;BME280;21130;51.728;8.748;2023-12-20T07:46:34;100172.09;;;4.69;100.00
34925;BME280;21130;51.728;8.748;2023-12-20T07:49:01;100174.00;;;4.69;100.00
34925;BME280;21130;51.728;8.748;2023-12-20T07:51:27;100179.50;;;4.69;100.00
34925;BME280;21130;51.728;8.748;2023-12-20T07:53:54;100184.16;;;4.68;100.00
34925;BME280;21130;51.728;8.748;2023-12-20T07:56:21;100174.22;;;4.67;100.00
34925;BME280;21130;51.728;8.748;2023-12-20T07:58:48;100170.19;;;4.70;100.00
34925;BME280;21130;51.728;8.748;2023-12-20T08:01:15;100176.75;;;4.69;100.00
34925;BME280;21130;51.728;8.748;2023-12-20T08:03:43;100168.09;;;4.72;100.00
34925;BME280;21130;51.728;8.748;2023-12-20T08:06:10;100174.19;;;4.74;100.00
34925;BME280;21130;51.728;8.748;2023-12-20T08:08:36;100172.06;;;4.76;100.00
34925;BME280;21130;51.728;8.748;2023-12-20T08:11:03;100174.00;;;4.75;100.00
34925;BME280;21130;51.728;8.748;2023-12-20T08:13:29;100178.22;;;4.78;100.00
34925;BME280;21130;51.728;8.748;2023-12-20T08:15:56;100170.59;;;4.80;100.00
34925;BME280;21130;51.728;8.748;2023-12-20T08:18:22;100171.44;;;4.81;100.00
34925;BME280;21130;51.728;8.748;2023-12-20T08:20:50;100179.47;;;4.82;100.00
34925;BME280;21130;51.728;8.748;2023-12-20T08:23:18;100172.91;;;4.83;100.00
34925;BME280;21130;51.728;8.748;2023-12-20T08:25:45;100171.22;;;4.82;100.00
34925;BME280;21130;51.728;8.748;2023-12-20T08:28:12;100173.53;;;4.85;100.00
34925;BME280;21130;51.728;8.748;2023-12-20T08:30:38;100175.22;;;4.86;100.00
34925;BME280;21130;51.728;8.748;2023-12-20T08:33:05;100168.69;;;4.87;100.00
34925;BME280;21130;51.728;8.748;2023-12-20T08:35:36;100162.53;;;4.85;100.00
34925;BME280;21130;51.728;8.748;2023-12-20T08:38:04;100167.84;;;4.87;100.00
34925;BME280;21130;51.728;8.748;2023-12-20T08:40:36;100160.88;;;4.84;100.00
34925;BME280;21130;51.728;8.748;2023-12-20T08:43:03;100154.94;;;4.81;100.00
34925;BME280;21130;51.728;8.748;2023-12-20T08:45:29;100163.41;;;4.79;100.00
34925;BME280;21130;51.728;8.748;2023-12-20T08:47:58;100152.44;;;4.79;100.00
34925;BME280;21130;51.728;8.748;2023-12-20T08:50:25;100154.75;;;4.82;100.00
34925;BME280;21130;51.728;8.748;2023-12-20T08:52:51;100153.91;;;4.82;100.00
34925;BME280;21130;51.728;8.748;2023-12-20T08:55:20;100145.41;;;4.83;100.00
34925;BME280;21130;51.728;8.748;2023-12-20T08:57:47;100130.63;;;4.84;100.00
34925;BME280;21130;51.728;8.748;2023-12-20T09:00:14;100133.97;;;4.86;100.00
34925;BME280;21130;51.728;8.748;2023-12-20T09:02:41;100129.09;;;4.88;100.00
34925;BME280;21130;51.728;8.748;2023-12-20T09:05:08;100137.16;;;4.90;100.00
34925;BME280;21130;51.728;8.748;2023-12-20T09:07:35;100135.44;;;4.89;100.00
34925;BME280;21130;51.728;8.748;2023-12-20T09:10:01;100138.00;;;4.90;100.00
34925;BME280;21130;51.728;8.748;2023-12-20T09:12:29;100128.25;;;4.94;100.00
34925;BME280;21130;51.728;8.748;2023-12-20T09:14:56;100127.38;;;4.94;100.00
34925;BME280;21130;51.728;8.748;2023-12-20T09:17:22;100126.75;;;4.98;100.00
34925;BME280;21130;51.728;8.748;2023-12-20T09:19:49;100125.69;;;5.00;100.00
34925;BME280;21130;51.728;8.748;2023-12-20T09:22:17;100117.00;;;5.03;100.00
34925;BME280;21130;51.728;8.748;2023-12-20T09:24:44;100112.13;;;5.05;100.00
34925;BME280;21130;51.728;8.748;2023-12-20T09:27:10;100115.09;;;5.03;100.00
34925;BME280;21130;51.728;8.748;2023-12-20T09:29:38;100101.13;;;5.05;100.00
34925;BME280;21130;51.728;8.748;2023-12-20T09:32:05;100112.78;;;5.07;100.00
34925;BME280;21130;51.728;8.748;2023-12-20T09:34:31;100098.16;;;5.06;100.00
34925;BME280;21130;51.728;8.748;2023-12-20T09:36:58;100086.09;;;5.07;100.00
34925;BME280;21130;51.728;8.748;2023-12-20T09:39:24;100095.19;;;5.08;100.00
34925;BME280;21130;51.728;8.748;2023-12-20T09:41:59;100091.38;;;5.09;100.00
34925;BME280;21130;51.728;8.748;2023-12-20T09:44:26;100096.25;;;5.07;100.00
34925;BME280;21130;51.728;8.748;2023-12-20T09:46:55;100087.38;;;5.05;100.00
34925;BME280;21130;51.728;8.748;2023-12-20T09:49:22;100089.91;;;5.06;100.00
34925;BME280;21130;51.728;8.748;2023-12-20T09:51:50;100084.63;;;5.05;100.00
34925;BME280;21130;51.728;8.748;2023-12-20T09:54:18;100065.13;;;5.06;100.00
34925;BME280;21130;51.728;8.748;2023-12-20T09:56:46;100071.50;;;5.07;100.00
34925;BME280;21130;51.728;8.748;2023-12-20T09:59:13;100090.31;;;5.10;100.00
34925;BME280;21130;51.728;8.748;2023-12-20T10:01:40;100074.19;;;5.13;100.00
34925;BME280;21130;51.728;8.748;2023-12-20T10:04:09;100077.78;;;5.14;100.00
34925;BME280;21130;51.728;8.748;2023-12-20T10:06:37;100077.78;;;5.14;100.00
34925;BME280;21130;51.728;8.748;2023-12-20T10:09:04;100074.00;;;5.15;100.00
34925;BME280;21130;51.728;8.748;2023-12-20T10:11:31;100081.19;;;5.16;100.00
34925;BME280;21130;51.728;8.748;2023-12-20T10:13:59;100058.13;;;5.17;100.00
34925;BME280;21130;51.728;8.748;2023-12-20T10:16:26;100064.66;;;5.16;100.00
34925;BME280;21130;51.728;8.748;2023-12-20T10:18:52;100073.09;;;5.21;100.00
34925;BME280;21130;51.728;8.748;2023-12-20T10:21:20;100066.56;;;5.22;100.00
34925;BME280;21130;51.728;8.748;2023-12-20T10:23:47;100060.59;;;5.25;100.00
34925;BME280;21130;51.728;8.748;2023-12-20T10:26:19;100060.81;;;5.24;100.00
34925;BME280;21130;51.728;8.748;2023-12-20T10:28:45;100066.09;;;5.25;100.00
34925;BME280;21130;51.728;8.748;2023-12-20T10:31:26;100065.47;;;5.23;100.00
34925;BME280;21130;51.728;8.748;2023-12-20T10:33:52;100065.91;;;5.27;100.00
34925;BME280;21130;51.728;8.748;2023-12-20T10:36:18;100058.06;;;5.24;100.00
34925;BME280;21130;51.728;8.748;2023-12-20T10:38:47;100054.47;;;5.23;100.00
34925;BME280;21130;51.728;8.748;2023-12-20T10:41:17;100065.94;;;5.20;100.00
34925;BME280;21130;51.728;8.748;2023-12-20T10:43:46;100054.47;;;5.23;100.00
34925;BME280;21130;51.728;8.748;2023-12-20T10:46:13;100039.66;;;5.24;100.00
34925;BME280;21130;51.728;8.748;2023-12-20T10:48:40;100047.28;;;5.22;100.00
34925;BME280;21130;51.728;8.748;2023-12-20T10:51:08;100034.75;;;5.26;100.00
34925;BME280;21130;51.728;8.748;2023-12-20T10:53:35;100034.09;;;5.31;100.00
34925;BME280;21130;51.728;8.748;2023-12-20T10:56:06;100041.03;;;5.40;100.00
34925;BME280;21130;51.728;8.748;2023-12-20T10:58:35;100035.47;;;5.47;100.00
34925;BME280;21130;51.728;8.748;2023-12-20T11:01:04;100026.50;;;5.58;100.00
34925;BME280;21130;51.728;8.748;2023-12-20T11:03:34;100021.16;;;5.63;100.00
34925;BME280;21130;51.728;8.748;2023-12-20T11:06:05;100033.84;;;5.64;100.00
34925;BME280;21130;51.728;8.748;2023-12-20T11:08:38;100027.28;;;5.65;100.00
34925;BME280;21130;51.728;8.748;2023-12-20T11:11:10;100013.97;;;5.62;100.00
34925;BME280;21130;51.728;8.748;2023-12-20T11:13:43;100016.56;;;5.57;100.00
34925;BME280;21130;51.728;8.748;2023-12-20T11:16:14;100028.88;;;5.54;100.00
34925;BME280;21130;51.728;8.748;2023-12-20T11:18:41;100031.84;;;5.53;100.00
34925;BME280;21130;51.728;8.748;2023-12-20T11:21:07;100040.31;;;5.51;100.00
34925;BME280;21130;51.728;8.748;2023-12-20T11:23:34;100040.13;;;5.46;100.00
34925;BME280;21130;51.728;8.748;2023-12-20T11:26:01;100033.16;;;5.44;100.00
34925;BME280;21130;51.728;8.748;2023-12-20T11:28:30;100032.94;;;5.45;100.00
34925;BME280;21130;51.728;8.748;2023-12-20T11:30:57;100013.91;;;5.44;100.00
34925;BME280;21130;51.728;8.748;2023-12-20T11:33:26;100023.44;;;5.41;100.00
34925;BME280;21130;51.728;8.748;2023-12-20T11:35:56;100029.78;;;5.41;100.00
34925;BME280;21130;51.728;8.748;2023-12-20T11:38:23;100034.44;;;5.41;100.00
34925;BME280;21130;51.728;8.748;2023-12-20T11:40:50;100027.66;;;5.44;100.00
34925;BME280;21130;51.728;8.748;2023-12-20T11:43:31;100021.69;;;5.47;100.00
34925;BME280;21130;51.728;8.748;2023-12-20T11:46:03;100022.56;;;5.47;100.00
34925;BME280;21130;51.728;8.748;2023-12-20T11:48:30;100027.00;;;5.48;100.00
34925;BME280;21130;51.728;8.748;2023-12-20T11:50:56;100013.03;;;5.50;100.00
34925;BME280;21130;51.728;8.748;2023-12-20T11:53:25;99998.84;;;5.46;100.00
34925;BME280;21130;51.728;8.748;2023-12-20T11:55:51;100003.06;;;5.49;100.00
34925;BME280;21130;51.728;8.748;2023-12-20T11:58:19;100001.56;;;5.53;100.00
34925;BME280;21130;51.728;8.748;2023-12-20T12:00:49;100000.47;;;5.54;100.00
34925;BME280;21130;51.728;8.748;2023-12-20T12:34:14;99976.97;;;5.76;100.00
34925;BME280;21130;51.728;8.748;2023-12-20T12:36:41;99979.56;;;5.71;100.00
34925;BME280;21130;51.728;8.748;2023-12-20T12:39:08;99974.22;;;5.76;100.00
34925;BME280;21130;51.728;8.748;2023-12-20T12:41:35;99965.09;;;5.82;100.00
34925;BME280;21130;51.728;8.748;2023-12-20T12:44:01;99969.13;;;5.80;100.00
34925;BME280;21130;51.728;8.748;2023-12-20T12:46:28;99966.75;;;5.83;100.00
34925;BME280;21130;51.728;8.748;2023-12-20T12:48:54;99952.53;;;5.87;100.00
34925;BME280;21130;51.728;8.748;2023-12-20T12:51:23;99951.47;;;5.88;100.00
34925;BME280;21130;51.728;8.748;2023-12-20T12:53:49;99955.06;;;5.88;100.00
34925;BME280;21130;51.728;8.748;2023-12-20T12:56:17;99956.34;;;5.85;100.00
34925;BME280;21130;51.728;8.748;2023-12-20T12:58:44;99964.97;;;5.96;100.00
34925;BME280;21130;51.728;8.748;2023-12-20T13:01:10;99943.56;;;5.98;100.00
34925;BME280;21130;51.728;8.748;2023-12-20T13:03:37;99943.09;;;6.01;100.00
34925;BME280;21130;51.728;8.748;2023-12-20T13:06:04;99941.78;;;6.03;100.00
34925;BME280;21130;51.728;8.748;2023-12-20T13:08:32;99932.47;;;6.04;100.00
34925;BME280;21130;51.728;8.748;2023-12-20T13:10:59;99931.59;;;6.04;100.00
34925;BME280;21130;51.728;8.748;2023-12-20T13:13:26;99927.53;;;6.06;100.00
34925;BME280;21130;51.728;8.748;2023-12-20T13:15:52;99918.44;;;6.06;100.00
34925;BME280;21130;51.728;8.748;2023-12-20T13:18:20;99926.09;;;6.04;100.00
34925;BME280;21130;51.728;8.748;2023-12-20T13:20:46;99926.09;;;6.04;100.00